createdAt,value
2023-04-22T00:00:49.218Z,99335.77
2023-04-22T00:03:54.780Z,99333.73
2023-04-22T00:06:56.881Z,99334.98
2023-04-22T00:09:58.495Z,99337.27
2023-04-22T00:13:00.373Z,99340.38
2023-04-22T00:16:02.047Z,99342.37
2023-04-22T00:19:04.200Z,99337.96
2023-04-22T00:22:05.719Z,99333.10
2023-04-22T00:25:08.952Z,99334.23
2023-04-22T00:28:10.825Z,99339.19
2023-04-22T00:31:12.600Z,99334.52
2023-04-22T00:34:14.541Z,99332.41
2023-04-22T00:37:16.203Z,99333.67
2023-04-22T00:40:18.032Z,99332.83
2023-04-22T00:43:19.575Z,99331.50
2023-04-22T00:46:21.309Z,99327.89
2023-04-22T00:49:23.016Z,99329.74
2023-04-22T00:52:24.605Z,99329.16
2023-04-22T00:55:26.577Z,99332.14
2023-04-22T00:58:28.943Z,99324.55
2023-04-22T01:01:31.172Z,99327.39
2023-04-22T01:04:33.266Z,99329.58
2023-04-22T01:07:35.786Z,99329.05
2023-04-22T01:10:37.875Z,99328.44
2023-04-22T01:13:39.529Z,99334.67
2023-04-22T01:16:41.263Z,99330.23
2023-04-22T01:19:43.756Z,99329.48
2023-04-22T01:22:46.784Z,99330.00
2023-04-22T01:25:49.060Z,99327.45
2023-04-22T01:28:50.972Z,99328.62
2023-04-22T01:31:53.173Z,99328.92
2023-04-22T01:34:55.060Z,99328.39
2023-04-22T01:37:56.837Z,99330.78
2023-04-22T01:40:58.607Z,99327.62
2023-04-22T01:44:00.283Z,99329.61
2023-04-22T01:47:01.953Z,99330.03
2023-04-22T01:50:03.656Z,99332.23
2023-04-22T01:53:07.467Z,99331.86
2023-04-22T01:56:09.444Z,99326.37
2023-04-22T01:59:11.134Z,99323.77
2023-04-22T02:02:12.738Z,99324.16
2023-04-22T02:05:14.613Z,99326.79
2023-04-22T02:08:16.387Z,99323.73
2023-04-22T02:11:17.973Z,99325.77
2023-04-22T02:14:19.753Z,99328.70
2023-04-22T02:17:21.279Z,99330.98
2023-04-22T02:20:23.030Z,99325.73
2023-04-22T02:23:24.640Z,99329.02
2023-04-22T02:26:26.449Z,99327.12
2023-04-22T02:29:28.146Z,99327.61
2023-04-22T02:32:29.799Z,99323.55
2023-04-22T02:35:31.643Z,99325.29
2023-04-22T02:38:33.276Z,99325.69
2023-04-22T02:41:34.884Z,99323.21
2023-04-22T02:44:36.635Z,99323.34
2023-04-22T02:47:38.201Z,99320.94
2023-04-22T02:50:39.901Z,99318.67
2023-04-22T02:53:41.602Z,99323.52
2023-04-22T02:56:43.254Z,99323.72
2023-04-22T02:59:44.950Z,99325.73
2023-04-22T03:02:46.644Z,99323.40
2023-04-22T03:05:48.554Z,99323.02
2023-04-22T03:08:50.301Z,99323.73
2023-04-22T03:11:51.994Z,99324.29
2023-04-22T03:14:53.610Z,99326.04
2023-04-22T03:17:55.219Z,99328.63
2023-04-22T03:20:56.933Z,99329.35
2023-04-22T03:23:59.172Z,99332.77
2023-04-22T03:27:00.859Z,99331.06
2023-04-22T03:30:03.829Z,99332.23
2023-04-22T03:33:05.587Z,99333.27
2023-04-22T03:36:07.328Z,99337.91
2023-04-22T03:39:09.120Z,99343.23
2023-04-22T03:42:12.367Z,99344.23
2023-04-22T03:45:14.004Z,99340.02
2023-04-22T03:48:15.630Z,99341.08
2023-04-22T03:51:17.224Z,99340.94
2023-04-22T03:54:19.234Z,99339.52
2023-04-22T03:57:20.941Z,99343.63
2023-04-22T04:00:22.479Z,99344.67
2023-04-22T04:03:26.196Z,99348.79
2023-04-22T04:06:29.155Z,99349.84
2023-04-22T04:09:30.872Z,99350.73
2023-04-22T04:12:32.501Z,99351.05
2023-04-22T04:15:34.285Z,99355.77
2023-04-22T04:18:35.836Z,99352.46
2023-04-22T04:21:37.638Z,99351.17
2023-04-22T04:24:39.195Z,99359.91
2023-04-22T04:27:40.860Z,99362.38
2023-04-22T04:30:42.484Z,99366.00
2023-04-22T04:33:44.472Z,99369.27
2023-04-22T04:36:46.080Z,99367.09
2023-04-22T04:39:47.770Z,99370.96
2023-04-22T04:42:49.431Z,99370.73
2023-04-22T04:45:51.919Z,99372.39
2023-04-22T04:48:53.619Z,99371.11
2023-04-22T04:51:55.146Z,99370.83
2023-04-22T04:54:56.859Z,99370.81
2023-04-22T04:57:58.430Z,99374.50
2023-04-22T05:01:00.123Z,99370.26
2023-04-22T05:04:02.170Z,99367.14
2023-04-22T05:07:03.759Z,99369.91
2023-04-22T05:10:06.106Z,99372.61
2023-04-22T05:13:07.906Z,99376.08
2023-04-22T05:16:09.546Z,99376.70
2023-04-22T05:19:11.041Z,99369.71
2023-04-22T05:22:12.731Z,99370.39
2023-04-22T05:25:14.314Z,99373.45
2023-04-22T05:28:15.876Z,99370.35
2023-04-22T05:31:17.488Z,99369.29
2023-04-22T05:34:19.240Z,99373.80
2023-04-22T05:37:20.885Z,99377.05
2023-04-22T05:40:23.074Z,99375.48
2023-04-22T05:43:24.715Z,99376.90
2023-04-22T05:46:26.460Z,99379.03
2023-04-22T05:49:28.223Z,99380.46
2023-04-22T05:52:29.967Z,99378.16
2023-04-22T05:55:31.677Z,99377.96
2023-04-22T05:58:33.471Z,99381.05
2023-04-22T06:01:38.128Z,99377.71
2023-04-22T06:04:39.935Z,99378.95
2023-04-22T06:07:42.064Z,99372.52
2023-04-22T06:10:44.167Z,99375.34
2023-04-22T06:13:45.799Z,99377.70
2023-04-22T06:16:48.057Z,99377.20
2023-04-22T06:19:49.754Z,99381.06
2023-04-22T06:22:51.421Z,99380.19
2023-04-22T06:25:53.284Z,99374.64
2023-04-22T06:28:55.007Z,99373.52
2023-04-22T06:31:56.787Z,99378.82
2023-04-22T06:34:58.451Z,99378.70
2023-04-22T06:38:00.233Z,99378.29
2023-04-22T06:41:01.948Z,99377.52
2023-04-22T06:44:03.719Z,99377.56
2023-04-22T06:47:05.550Z,99378.31
2023-04-22T06:50:09.034Z,99377.98
2023-04-22T06:53:10.724Z,99378.82
2023-04-22T06:56:12.616Z,99372.44
2023-04-22T06:59:14.283Z,99376.89
2023-04-22T07:02:16.162Z,99373.32
2023-04-22T07:05:17.949Z,99373.45
2023-04-22T07:08:19.606Z,99375.05
2023-04-22T07:11:21.279Z,99375.27
2023-04-22T07:14:25.116Z,99377.52
2023-04-22T07:17:27.233Z,99380.23
2023-04-22T07:20:28.910Z,99377.98
2023-04-22T07:23:30.622Z,99377.27
2023-04-22T07:26:32.453Z,99377.05
2023-04-22T07:29:34.297Z,99378.02
2023-04-22T07:32:35.967Z,99377.13
2023-04-22T07:35:37.850Z,99377.34
2023-04-22T07:38:39.606Z,99375.23
2023-04-22T07:41:41.407Z,99379.40
2023-04-22T07:44:43.132Z,99372.14
2023-04-22T07:47:45.325Z,99376.73
2023-04-22T07:50:47.058Z,99372.71
2023-04-22T07:53:48.845Z,99375.17
2023-04-22T07:56:51.166Z,99370.13
2023-04-22T07:59:52.867Z,99371.76
2023-04-22T08:02:54.702Z,99370.80
2023-04-22T08:05:56.463Z,99370.52
2023-04-22T08:08:58.082Z,99370.42
2023-04-22T08:12:00.019Z,99371.34
2023-04-22T08:15:01.594Z,99372.11
2023-04-22T08:18:03.901Z,99373.33
2023-04-22T08:21:05.689Z,99372.38
2023-04-22T08:24:07.490Z,99375.23
2023-04-22T08:27:09.116Z,99369.05
2023-04-22T08:30:11.246Z,99371.48
2023-04-22T08:33:12.873Z,99372.77
2023-04-22T08:36:14.860Z,99370.29
2023-04-22T08:39:16.545Z,99367.23
2023-04-22T08:42:20.126Z,99367.73
2023-04-22T08:45:22.529Z,99370.85
2023-04-22T08:48:26.459Z,99370.16
2023-04-22T08:51:28.143Z,99369.74
2023-04-22T08:54:29.878Z,99368.34
2023-04-22T08:57:31.675Z,99367.64
2023-04-22T09:00:34.233Z,99363.53
2023-04-22T09:03:38.631Z,99366.23
2023-04-22T09:06:40.453Z,99365.24
2023-04-22T09:09:42.674Z,99363.21
2023-04-22T09:12:44.648Z,99362.04
2023-04-22T09:15:46.238Z,99361.41
2023-04-22T09:18:48.150Z,99356.43
2023-04-22T09:21:51.421Z,99353.36
2023-04-22T09:24:54.873Z,99355.66
2023-04-22T09:27:58.193Z,99346.66
2023-04-22T09:31:00.908Z,99348.09
2023-04-22T09:34:02.575Z,99345.44
2023-04-22T09:37:04.515Z,99341.27
2023-04-22T09:40:06.439Z,99334.81
2023-04-22T09:43:09.200Z,99333.20
2023-04-22T09:46:10.860Z,99333.31
2023-04-22T09:49:16.372Z,99330.36
2023-04-22T09:52:25.101Z,99328.13
2023-04-22T09:55:28.674Z,99322.73
2023-04-22T09:58:30.311Z,99319.55
2023-04-22T10:01:36.610Z,99320.06
2023-04-22T10:04:38.610Z,99323.55
2023-04-22T10:07:40.326Z,99321.31
2023-04-22T10:10:42.911Z,99311.45
2023-04-22T10:13:44.785Z,99310.48
2023-04-22T10:16:47.599Z,99312.74
2023-04-22T10:19:49.739Z,99305.18
2023-04-22T10:22:53.130Z,99304.63
2023-04-22T10:25:55.677Z,99304.05
2023-04-22T10:28:57.706Z,99299.10
2023-04-22T10:32:26.834Z,99296.61
2023-04-22T10:35:28.519Z,99296.61
2023-04-22T10:38:30.110Z,99295.63
2023-04-22T10:41:34.451Z,99290.75
2023-04-22T10:44:53.472Z,99289.92
2023-04-22T10:47:55.094Z,99284.83
2023-04-22T10:50:56.705Z,99284.73
2023-04-22T10:53:59.440Z,99277.83
2023-04-22T10:57:04.077Z,99276.45
2023-04-22T11:00:19.563Z,99279.48
2023-04-22T11:03:27.253Z,99281.11
2023-04-22T11:06:29.033Z,99280.55
2023-04-22T11:09:30.737Z,99274.27
2023-04-22T11:12:35.140Z,99275.73
2023-04-22T11:15:38.819Z,99275.91
2023-04-22T11:18:40.607Z,99271.88
2023-04-22T11:21:42.413Z,99267.92
2023-04-22T11:24:54.941Z,99261.69
2023-04-22T11:27:57.156Z,99258.71
2023-04-22T11:31:03.787Z,99254.47
2023-04-22T11:34:09.131Z,99255.50
2023-04-22T11:37:10.756Z,99251.61
2023-04-22T11:40:28.897Z,99245.40
2023-04-22T11:43:32.287Z,99238.48
2023-04-22T11:46:33.975Z,99243.30
2023-04-22T11:49:35.636Z,99236.48
2023-04-22T11:52:46.223Z,99237.01
2023-04-22T11:55:50.469Z,99233.05
2023-04-22T11:58:52.147Z,99226.64
2023-04-22T12:01:53.920Z,99229.59
2023-04-22T12:04:58.872Z,99226.00
2023-04-22T12:08:02.842Z,99230.21
2023-04-22T12:11:06.474Z,99230.60
2023-04-22T12:14:08.119Z,99228.03
2023-04-22T12:17:09.841Z,99222.30
2023-04-22T12:20:12.231Z,99218.02
2023-04-22T12:23:16.274Z,99219.83
2023-04-22T12:26:19.135Z,99216.12
2023-04-22T12:29:32.093Z,99219.11
2023-04-22T12:32:33.840Z,99215.65
2023-04-22T12:35:35.497Z,99211.75
2023-04-22T12:38:37.672Z,99210.98
2023-04-22T12:41:39.404Z,99212.58
2023-04-22T12:44:41.029Z,99213.68
2023-04-22T12:47:43.006Z,99217.13
2023-04-22T12:50:44.733Z,99209.97
2023-04-22T12:53:46.400Z,99208.36
2023-04-22T12:56:48.628Z,99199.33
2023-04-22T12:59:50.299Z,99194.86
2023-04-22T13:02:52.154Z,99189.77
2023-04-22T13:05:54.559Z,99188.52
2023-04-22T13:08:56.348Z,99185.93
2023-04-22T13:11:57.987Z,99182.83
2023-04-22T13:14:59.706Z,99177.01
2023-04-22T13:18:02.109Z,99177.17
2023-04-22T13:21:04.086Z,99178.29
2023-04-22T13:24:05.980Z,99172.97
2023-04-22T13:27:07.671Z,99174.14
2023-04-22T13:30:09.836Z,99172.20
2023-04-22T13:33:11.582Z,99167.30
2023-04-22T13:36:13.293Z,99170.21
2023-04-22T13:39:14.923Z,99172.43
2023-04-22T13:42:16.950Z,99166.91
2023-04-22T13:45:18.678Z,99163.61
2023-04-22T13:48:20.328Z,99165.27
2023-04-22T13:51:22.807Z,99164.23
2023-04-22T13:54:24.486Z,99164.95
2023-04-22T13:57:26.205Z,99166.95
2023-04-22T14:00:28.098Z,99161.79
2023-04-22T14:03:30.168Z,99161.73
2023-04-22T14:06:31.897Z,99159.30
2023-04-22T14:09:33.515Z,99159.32
2023-04-22T14:12:35.205Z,99161.17
2023-04-22T14:15:38.392Z,99160.09
2023-04-22T14:18:41.106Z,99155.54
2023-04-22T14:21:42.898Z,99151.61
2023-04-22T14:24:44.774Z,99150.38
2023-04-22T14:27:46.405Z,99149.74
2023-04-22T14:30:48.223Z,99148.46
2023-04-22T14:33:50.555Z,99145.27
2023-04-22T14:36:52.400Z,99141.57
2023-04-22T14:39:54.056Z,99146.48
2023-04-22T14:43:00.454Z,99145.17
2023-04-22T14:46:02.310Z,99148.27
2023-04-22T14:49:04.090Z,99145.91
2023-04-22T14:52:06.032Z,99144.52
2023-04-22T14:55:19.528Z,99140.27
2023-04-22T14:58:24.018Z,99134.11
2023-04-22T15:01:25.792Z,99128.02
2023-04-22T15:04:27.549Z,99136.46
2023-04-22T15:07:29.940Z,99129.60
2023-04-22T15:10:31.633Z,99127.47
2023-04-22T15:13:33.437Z,99127.91
2023-04-22T15:16:35.340Z,99126.55
2023-04-22T15:19:37.080Z,99129.38
2023-04-22T15:22:39.730Z,99130.64
2023-04-22T15:25:44.993Z,99127.08
2023-04-22T15:28:46.702Z,99124.39
2023-04-22T15:31:48.420Z,99122.20
2023-04-22T15:34:50.110Z,99118.30
2023-04-22T15:37:51.883Z,99119.30
2023-04-22T15:40:53.908Z,99119.60
2023-04-22T15:43:55.532Z,99117.12
2023-04-22T15:46:57.954Z,99111.24
2023-04-22T15:49:59.702Z,99109.16
2023-04-22T15:53:01.376Z,99112.50
2023-04-22T15:56:03.016Z,99111.20
2023-04-22T15:59:04.744Z,99109.77
2023-04-22T16:02:07.167Z,99111.77
2023-04-22T16:05:09.390Z,99107.09
2023-04-22T16:08:11.048Z,99110.95
2023-04-22T16:11:14.212Z,99109.91
2023-04-22T16:14:15.898Z,99108.48
2023-04-22T16:17:18.267Z,99104.60
2023-04-22T16:20:20.046Z,99100.84
2023-04-22T16:23:22.054Z,99101.94
2023-04-22T16:26:23.630Z,99099.27
2023-04-22T16:29:25.307Z,99098.39
2023-04-22T16:32:26.957Z,99098.95
2023-04-22T16:35:28.781Z,99096.59
2023-04-22T16:38:30.377Z,99096.35
2023-04-22T16:41:33.947Z,99097.52
2023-04-22T16:44:35.649Z,99093.92
2023-04-22T16:47:37.538Z,99091.69
2023-04-22T16:50:39.256Z,99094.95
2023-04-22T16:53:40.838Z,99092.48
2023-04-22T16:56:42.642Z,99091.20
2023-04-22T16:59:44.285Z,99094.11
2023-04-22T17:02:46.129Z,99090.46
2023-04-22T17:05:48.170Z,99092.93
2023-04-22T17:08:49.844Z,99095.13
2023-04-22T17:11:51.454Z,99095.89
2023-04-22T17:14:53.099Z,99095.69
2023-04-22T17:17:54.785Z,99095.70
2023-04-22T17:20:56.434Z,99094.23
2023-04-22T17:23:58.189Z,99096.90
2023-04-22T17:26:59.805Z,99094.04
2023-04-22T17:30:01.598Z,99095.04
2023-04-22T17:33:03.673Z,99094.35
2023-04-22T17:36:05.668Z,99096.40
2023-04-22T17:39:07.350Z,99097.30
2023-04-22T17:42:08.999Z,99097.59
2023-04-22T17:45:11.336Z,99097.80
2023-04-22T17:48:13.117Z,99103.77
2023-04-22T17:51:15.241Z,99111.33
2023-04-22T17:54:17.032Z,99112.34
2023-04-22T17:57:18.622Z,99114.60
2023-04-22T18:00:20.341Z,99111.13
2023-04-22T18:03:22.210Z,99110.91
2023-04-22T18:06:24.249Z,99114.55
2023-04-22T18:09:26.034Z,99117.62
2023-04-22T18:12:29.253Z,99120.96
2023-04-22T18:15:32.517Z,99129.89
2023-04-22T18:18:34.441Z,99131.16
2023-04-22T18:21:38.141Z,99131.43
2023-04-22T18:24:41.664Z,99131.33
2023-04-22T18:27:44.393Z,99138.48
2023-04-22T18:30:46.893Z,99136.11
2023-04-22T18:33:48.504Z,99142.56
2023-04-22T18:36:50.558Z,99141.95
2023-04-22T18:39:52.179Z,99139.69
2023-04-22T18:42:53.855Z,99140.12
2023-04-22T18:45:55.694Z,99140.45
2023-04-22T18:48:57.572Z,99141.67
2023-04-22T18:52:00.173Z,99145.13
2023-04-22T18:55:02.177Z,99143.95
2023-04-22T18:58:03.826Z,99144.11
2023-04-22T19:01:05.787Z,99141.46
2023-04-22T19:04:07.724Z,99137.73
2023-04-22T19:07:09.671Z,99143.55
2023-04-22T19:10:11.414Z,99139.69
2023-04-22T19:13:18.860Z,99140.16
2023-04-22T19:16:30.757Z,99136.19
2023-04-22T19:19:32.512Z,99138.10
2023-04-22T19:22:34.518Z,99137.16
2023-04-22T19:25:36.218Z,99136.30
2023-04-22T19:28:37.995Z,99134.65
2023-04-22T19:31:39.692Z,99138.67
2023-04-22T19:34:41.489Z,99132.05
2023-04-22T19:37:43.247Z,99135.05
2023-04-22T19:40:45.191Z,99131.16
2023-04-22T19:43:46.894Z,99131.92
2023-04-22T19:46:48.682Z,99133.09
2023-04-22T19:49:50.530Z,99130.56
2023-04-22T19:53:00.626Z,99132.92
2023-04-22T19:56:02.641Z,99131.83
2023-04-22T19:59:05.271Z,99130.49
2023-04-22T20:02:07.970Z,99127.76
2023-04-22T20:05:10.330Z,99129.16
2023-04-22T20:08:12.070Z,99129.73
2023-04-22T20:11:14.098Z,99128.71
2023-04-22T20:14:16.205Z,99125.89
2023-04-22T20:17:18.106Z,99125.28
2023-04-22T20:20:19.821Z,99125.52
2023-04-22T20:23:24.030Z,99123.48
2023-04-22T20:26:25.687Z,99126.59
2023-04-22T20:29:27.577Z,99128.42
2023-04-22T20:32:29.545Z,99130.27
2023-04-22T20:35:31.708Z,99129.86
2023-04-22T20:38:35.483Z,99131.92
2023-04-22T20:41:38.218Z,99130.30
2023-04-22T20:44:40.100Z,99129.05
2023-04-22T20:47:42.540Z,99127.94
2023-04-22T20:50:44.227Z,99127.15
2023-04-22T20:53:45.879Z,99125.36
2023-04-22T20:56:47.621Z,99118.01
2023-04-22T20:59:49.143Z,99118.65
2023-04-22T21:02:51.223Z,99119.05
2023-04-22T21:05:53.608Z,99122.30
2023-04-22T21:08:55.559Z,99125.11
2023-04-22T21:11:57.456Z,99125.48
2023-04-22T21:14:59.602Z,99121.21
2023-04-22T21:18:02.391Z,99120.61
2023-04-22T21:21:05.178Z,99119.64
2023-04-22T21:24:07.491Z,99117.23
2023-04-22T21:27:09.829Z,99119.50
2023-04-22T21:30:12.284Z,99116.80
2023-04-22T21:33:13.964Z,99121.77
2023-04-22T21:36:15.973Z,99124.91
2023-04-22T21:39:17.795Z,99123.75
2023-04-22T21:42:19.492Z,99121.27
2023-04-22T21:45:21.298Z,99118.16
2023-04-22T21:48:23.044Z,99122.52
2023-04-22T21:51:24.653Z,99118.63
2023-04-22T21:54:26.437Z,99124.19
2023-04-22T21:57:27.983Z,99123.08
2023-04-22T22:00:29.673Z,99118.94
2023-04-22T22:03:31.615Z,99117.39
2023-04-22T22:06:33.495Z,99118.86
2023-04-22T22:09:35.216Z,99116.86
2023-04-22T22:12:36.872Z,99112.48
2023-04-22T22:15:38.512Z,99116.21
2023-04-22T22:18:40.355Z,99116.67
2023-04-22T22:21:41.903Z,99116.23
2023-04-22T22:24:43.842Z,99120.00
2023-04-22T22:27:45.825Z,99122.05
2023-04-22T22:30:47.361Z,99123.33
2023-04-22T22:33:49.145Z,99123.03
2023-04-22T22:36:50.825Z,99121.16
2023-04-22T22:39:52.384Z,99118.73
2023-04-22T22:42:53.925Z,99121.17
2023-04-22T22:45:55.647Z,99119.34
2023-04-22T22:48:57.762Z,99117.95
2023-04-22T22:51:59.599Z,99117.84
2023-04-22T22:55:01.173Z,99116.34
2023-04-22T22:58:02.663Z,99114.95
2023-04-22T23:01:05.430Z,99112.96
2023-04-22T23:04:07.439Z,99111.77
2023-04-22T23:07:09.586Z,99111.59
2023-04-22T23:10:11.218Z,99114.47
2023-04-22T23:13:12.846Z,99117.02
2023-04-22T23:16:14.740Z,99119.11
2023-04-22T23:19:17.182Z,99114.71
2023-04-22T23:22:19.176Z,99115.59
2023-04-22T23:25:21.244Z,99115.95
2023-04-22T23:28:23.235Z,99114.90
2023-04-22T23:31:25.271Z,99115.54
2023-04-22T23:34:27.326Z,99114.12
2023-04-22T23:37:29.658Z,99111.04
2023-04-22T23:40:31.322Z,99109.52
2023-04-22T23:43:32.912Z,99114.90
2023-04-22T23:46:34.475Z,99115.11
2023-04-22T23:49:36.462Z,99112.88
2023-04-22T23:52:37.941Z,99107.21
2023-04-22T23:55:40.061Z,99109.38
2023-04-22T23:58:41.944Z,99103.31
